»·PEaware :: N8DL KAUN-KMFR

N8DL :: KAUN-KMFR

FLIGHT INFORMATION

Flight Status: Arrived
Operator: Privately registered:
United States
More flights under this callsign
Pilot: Dean L. (8400)
Aircraft: Unknown
(BE62)
More flights by this aircraft type
Origin: KAUN Auburn Mun
United States
Destination: KMFR Rogue Valley Intl-Medford
United States
More flights between these airports :: More routes between these airports
Route: + MOG OED
File this flight plan on PilotEdge
Remarks:
Altitude:
(Current/Filed)
14,500ft
Speed:
(Current/Filed)
250kts
Departed: 31-Aug-18 01:02 PM
Arrived: 31-Aug-18 01:53 PM
Distance/Time
Traveled:
221nm/0:51
Distance/Time
To Go:
Arrived

Flight Plot

Page will automatically refresh every two minutes.

Flight plan parsing failed; only flown route is shown


Map Options




Map Legend


Flown Route
Filed Route
Departure Airport
Arrival Airport
Navaid (VOR, NDB)
Fix

Horizontal Profiles

Position Reports

Time Latitude Longitude Heading Altitude Ground
Speed
31-Aug-18 13:01 38.953970 -121.076736 84 1503ft 0kts
31-Aug-18 13:02 38.954633 -121.076647 25 1503ft 5kts
31-Aug-18 13:03 38.954808 -121.082028 264 1503ft 102kts
31-Aug-18 13:04 38.974402 -121.117437 340 3568ft 144kts
31-Aug-18 13:05 39.017136 -121.117415 17 5936ft 169kts
31-Aug-18 13:06 39.067434 -121.114824 356 7573ft 192kts
31-Aug-18 13:07 39.118704 -121.136668 330 9200ft 198kts
31-Aug-18 13:08 39.165785 -121.170001 330 11268ft 182kts
31-Aug-18 13:09 39.209237 -121.204912 334 12592ft 209kts
31-Aug-18 13:10 39.266608 -121.233319 337 12594ft 225kts
31-Aug-18 13:11 39.325713 -121.262087 337 12572ft 226kts
31-Aug-18 13:12 39.385435 -121.291820 337 12593ft 233kts
31-Aug-18 13:13 39.445492 -121.324461 331 12792ft 225kts
31-Aug-18 13:14 39.498451 -121.373033 319 12738ft 227kts
31-Aug-18 13:15 39.558635 -121.395514 358 12507ft 240kts
31-Aug-18 13:16 39.623226 -121.408900 341 12510ft 235kts
31-Aug-18 13:17 39.684604 -121.438380 337 12470ft 233kts
31-Aug-18 13:18 39.745125 -121.468398 338 12458ft 233kts
31-Aug-18 13:19 39.805557 -121.498401 338 12468ft 232kts
31-Aug-18 13:20 39.866150 -121.528463 337 12475ft 232kts
31-Aug-18 13:21 39.926638 -121.558802 337 12472ft 229kts
31-Aug-18 13:22 39.985207 -121.587785 338 12470ft 223kts
31-Aug-18 13:23 40.043355 -121.616814 338 12480ft 224kts
31-Aug-18 13:24 40.101712 -121.646011 338 12473ft 223kts
31-Aug-18 13:25 40.159693 -121.675072 338 12483ft 224kts
31-Aug-18 13:26 40.218228 -121.704463 338 12481ft 225kts
31-Aug-18 13:27 40.276543 -121.733734 337 12483ft 225kts
31-Aug-18 13:28 40.335234 -121.763349 338 12465ft 224kts
31-Aug-18 13:29 40.393187 -121.792635 337 12467ft 225kts
31-Aug-18 13:30 40.451821 -121.822302 337 12457ft 223kts
31-Aug-18 13:31 40.509852 -121.851706 337 12456ft 224kts
31-Aug-18 13:32 40.613374 -121.904321 337 12469ft 224kts
31-Aug-18 13:33 40.729885 -121.963743 337 12478ft 225kts
31-Aug-18 13:34 40.846727 -122.023548 337 12496ft 224kts
31-Aug-18 13:36 40.962814 -122.083201 337 12525ft 224kts
31-Aug-18 13:37 41.077610 -122.146033 323 12852ft 213kts
31-Aug-18 13:38 41.183949 -122.229792 337 12758ft 226kts
31-Aug-18 13:39 41.261496 -122.289544 323 12412ft 225kts
31-Aug-18 13:40 41.377168 -122.316752 5 12599ft 228kts
31-Aug-18 13:41 41.497506 -122.360774 337 12583ft 226kts
31-Aug-18 13:42 41.614955 -122.422579 337 12579ft 227kts
31-Aug-18 13:43 41.732791 -122.484701 337 12578ft 227kts
31-Aug-18 13:44 41.849654 -122.551151 336 12577ft 229kts
31-Aug-18 13:45 41.968739 -122.618943 336 11264ft 230kts
31-Aug-18 13:46 42.072432 -122.678205 336 8923ft 229kts
31-Aug-18 13:46 42.121412 -122.706251 336 7604ft 228kts
31-Aug-18 13:48 42.188758 -122.747354 324 5648ft 227kts
31-Aug-18 13:48 42.228165 -122.783165 331 4634ft 186kts
31-Aug-18 13:50 42.272704 -122.813379 330 3281ft 127kts
31-Aug-18 13:50 42.295996 -122.829270 332 2516ft 91kts
31-Aug-18 13:51 42.320151 -122.844843 336 2395ft 87kts
31-Aug-18 13:53 42.347795 -122.858588 339 1642ft 84kts
31-Aug-18 13:53 42.366011 -122.868588 340 1349ft 80kts
31-Aug-18 13:55 42.372971 -122.873456 191 1338ft 14kts
31-Aug-18 13:55 42.372264 -122.873286 162 1338ft 12kts
31-Aug-18 13:56 42.370001 -122.873134 183 1338ft 0kts
31-Aug-18 13:57 42.370001 -122.873134 183 1338ft 0kts

Navigation Log

Ident Type
Flight plan parsing failed, navigation log unavailable